Time;durP1;ratioP1;P1;durP2;ratioP2;P2;SDS_P1;SDS_P2;PMS_P1;PMS_P2;Temp;Humidity;BMP_temperature;BMP_pressure;BME280_temperature;BME280_humidity;BME280_pressure;Samples;Min_cycle;Max_cycle;Signal;HPM_P1;HPM_P2
2021/03/03 00:00:00;;;;;;;12.93;9.27;;;10.60;73.50;;;;;;4960821;28;20122;-86
2021/03/03 00:02:26;;;;;;;14.45;10.02;;;10.60;73.60;;;;;;4971158;28;20118;-86
2021/03/03 00:04:52;;;;;;;13.60;8.93;;;10.60;73.60;;;;;;4979592;28;20170;-86
2021/03/03 00:07:18;;;;;;;12.98;9.30;;;10.50;73.60;;;;;;4969861;28;20039;-86
2021/03/03 00:09:44;;;;;;;12.07;8.70;;;10.50;73.60;;;;;;4962976;28;20041;-86
2021/03/03 00:12:10;;;;;;;12.60;9.25;;;10.50;73.60;;;;;;4995891;28;20102;-86
2021/03/03 00:14:36;;;;;;;12.93;9.30;;;10.50;73.60;;;;;;4979198;28;20038;-86
2021/03/03 00:17:02;;;;;;;12.85;9.05;;;10.40;73.60;;;;;;4995652;28;20042;-86
2021/03/03 00:19:28;;;;;;;12.80;8.68;;;10.40;73.60;;;;;;4947210;28;20038;-86
2021/03/03 00:21:54;;;;;;;12.65;8.80;;;10.40;73.70;;;;;;4947414;28;20385;-87
2021/03/03 00:24:20;;;;;;;13.35;8.65;;;10.40;73.70;;;;;;4979417;28;20031;-86
2021/03/03 00:26:46;;;;;;;14.45;10.30;;;10.30;73.70;;;;;;4995317;28;20121;-86
2021/03/03 00:29:11;;;;;;;11.70;8.45;;;10.30;73.70;;;;;;4988675;28;20368;-86
2021/03/03 00:31:37;;;;;;;13.05;9.05;;;10.30;73.70;;;;;;4988446;28;20109;-86
2021/03/03 00:34:03;;;;;;;13.30;9.27;;;10.30;73.70;;;;;;4974142;28;20031;-87
2021/03/03 00:36:28;;;;;;;13.05;8.60;;;10.20;73.70;;;;;;4978372;28;20038;-86
2021/03/03 00:38:54;;;;;;;14.07;9.68;;;10.20;73.80;;;;;;4992551;28;20464;-86
2021/03/03 00:41:20;;;;;;;11.10;8.05;;;10.20;73.90;;;;;;4993757;28;20057;-86
2021/03/03 00:43:45;;;;;;;11.55;8.40;;;10.20;73.90;;;;;;4981620;28;20038;-87
2021/03/03 00:46:12;;;;;;;12.52;8.63;;;10.10;73.80;;;;;;4975568;28;20042;-86
2021/03/03 00:48:38;;;;;;;12.23;9.18;;;10.10;73.90;;;;;;4969145;28;20166;-87
2021/03/03 00:51:05;;;;;;;13.02;9.13;;;10.10;73.90;;;;;;4979078;28;20042;-86
2021/03/03 00:53:32;;;;;;;11.57;8.50;;;10.10;73.90;;;;;;4995211;28;20463;-87
2021/03/03 00:55:58;;;;;;;11.25;8.57;;;10.00;73.90;;;;;;4960400;28;20031;-87
2021/03/03 00:58:27;;;;;;;13.02;9.30;;;10.00;73.90;;;;;;4994630;28;20102;-86
2021/03/03 01:00:59;;;;;;;12.00;8.18;;;10.00;74.00;;;;;;4972762;28;20034;-86
2021/03/03 01:03:26;;;;;;;12.45;9.05;;;10.00;74.00;;;;;;4978406;28;20026;-86
2021/03/03 01:05:57;;;;;;;13.13;9.15;;;9.90;74.00;;;;;;4979238;28;20069;-86
2021/03/03 01:08:26;;;;;;;10.20;7.65;;;9.90;74.00;;;;;;4978886;28;20488;-86
2021/03/03 01:10:52;;;;;;;12.32;8.75;;;9.90;74.00;;;;;;4994708;28;20018;-86
2021/03/03 01:13:22;;;;;;;11.13;8.68;;;9.80;74.00;;;;;;4979249;28;20081;-87
2021/03/03 01:15:49;;;;;;;11.82;8.77;;;9.80;74.00;;;;;;4978589;28;20435;-86
2021/03/03 01:18:22;;;;;;;11.57;8.68;;;9.80;74.00;;;;;;4979740;28;20056;-87
2021/03/03 01:20:48;;;;;;;12.48;8.85;;;9.80;74.10;;;;;;4962430;28;20065;-86
2021/03/03 01:23:14;;;;;;;11.85;8.38;;;9.70;74.00;;;;;;4982771;28;20034;-86
2021/03/03 01:25:40;;;;;;;10.98;8.38;;;9.70;74.00;;;;;;4978141;28;20392;-86
2021/03/03 01:28:06;;;;;;;11.73;8.13;;;9.70;74.00;;;;;;4977823;28;20059;-86
2021/03/03 01:30:31;;;;;;;11.77;8.18;;;9.70;74.10;;;;;;4963306;28;20037;-86
2021/03/03 01:32:57;;;;;;;11.82;8.07;;;9.60;74.00;;;;;;4975271;28;20031;-87
2021/03/03 01:35:23;;;;;;;12.65;8.27;;;9.60;74.10;;;;;;4971923;28;20467;-87
2021/03/03 01:37:49;;;;;;;11.40;8.43;;;9.60;74.10;;;;;;4963272;28;20031;-86
2021/03/03 01:40:15;;;;;;;11.23;8.05;;;9.60;74.10;;;;;;4973503;28;20039;-86
2021/03/03 01:42:41;;;;;;;11.55;8.30;;;9.60;74.70;;;;;;4964126;28;20022;-86
2021/03/03 01:45:07;;;;;;;11.25;8.05;;;9.50;74.10;;;;;;4994062;28;20030;-87
2021/03/03 01:47:33;;;;;;;12.02;8.63;;;9.50;74.10;;;;;;4961713;28;20164;-86
2021/03/03 01:49:59;;;;;;;12.27;8.57;;;9.50;74.10;;;;;;4977608;28;20109;-86
2021/03/03 01:52:25;;;;;;;12.48;8.57;;;9.50;74.10;;;;;;4955014;28;20034;-86
2021/03/03 01:54:51;;;;;;;13.10;8.38;;;9.50;74.10;;;;;;4978205;28;20031;-87
2021/03/03 01:57:17;;;;;;;11.32;8.18;;;9.40;74.00;;;;;;4960157;28;20038;-86
2021/03/03 01:59:43;;;;;;;13.75;9.45;;;9.40;74.10;;;;;;4998218;28;20034;-87
2021/03/03 02:02:08;;;;;;;12.63;8.65;;;9.40;74.10;;;;;;4970961;28;20030;-86
2021/03/03 02:04:35;;;;;;;11.65;8.18;;;9.40;74.80;;;;;;5003612;28;20076;-86
2021/03/03 02:07:19;;;;;;;13.07;8.85;;;9.30;74.10;;;;;;4981745;28;20042;-86
2021/03/03 02:10:00;;;;;;;11.30;8.52;;;9.30;74.80;;;;;;4994934;28;20083;-86
2021/03/03 02:12:39;;;;;;;11.05;7.70;;;9.30;74.20;;;;;;4987819;28;20022;-86
2021/03/03 02:15:07;;;;;;;10.63;7.93;;;9.20;74.10;;;;;;4975409;28;20075;-86
2021/03/03 02:17:34;;;;;;;11.27;8.25;;;9.20;74.10;;;;;;4960405;28;20073;-86
2021/03/03 02:20:05;;;;;;;12.38;8.75;;;9.20;74.10;;;;;;4988717;28;20023;-86
2021/03/03 02:22:53;;;;;;;13.50;7.95;;;9.10;74.10;;;;;;4969811;28;20031;-86
2021/03/03 02:25:36;;;;;;;10.40;7.70;;;9.10;74.20;;;;;;4990218;28;20026;-86
2021/03/03 02:28:06;;;;;;;11.38;8.23;;;9.10;74.20;;;;;;4977417;28;20022;-87
2021/03/03 02:30:35;;;;;;;12.05;8.73;;;9.10;74.20;;;;;;4988693;28;20380;-86
2021/03/03 02:33:02;;;;;;;12.75;8.73;;;9.10;74.20;;;;;;4976720;28;20027;-86
2021/03/03 02:35:29;;;;;;;11.25;8.27;;;9.00;74.20;;;;;;4976299;28;20026;-85
2021/03/03 02:37:57;;;;;;;10.60;8.05;;;9.00;74.20;;;;;;4976856;28;20064;-86
2021/03/03 02:40:23;;;;;;;11.30;7.93;;;9.00;74.20;;;;;;4998412;28;20030;-86
2021/03/03 02:42:50;;;;;;;13.45;8.60;;;9.00;74.20;;;;;;4973864;28;20023;-86
2021/03/03 02:45:20;;;;;;;12.20;8.48;;;9.00;74.20;;;;;;4954750;28;20031;-86
2021/03/03 02:47:47;;;;;;;10.95;7.63;;;8.90;74.20;;;;;;4960162;28;20037;-87
2021/03/03 02:50:13;;;;;;;10.98;8.07;;;8.90;74.20;;;;;;4993917;28;20027;-87
2021/03/03 02:52:54;;;;;;;11.82;8.25;;;8.90;74.20;;;;;;4976664;28;20425;-86
2021/03/03 02:55:21;;;;;;;9.80;7.35;;;8.90;74.30;;;;;;4976460;28;20591;-86
2021/03/03 02:57:47;;;;;;;10.95;8.02;;;8.90;74.20;;;;;;4973781;28;20046;-86
2021/03/03 03:00:20;;;;;;;11.70;8.55;;;8.80;74.20;;;;;;4975637;28;20479;-86
2021/03/03 03:02:49;;;;;;;11.35;8.70;;;8.80;74.20;;;;;;4976902;28;20033;-86
2021/03/03 03:05:18;;;;;;;11.18;8.13;;;8.80;74.20;;;;;;4992957;28;20100;-86
2021/03/03 03:07:48;;;;;;;12.05;8.30;;;8.80;74.20;;;;;;4979324;28;20819;-86
2021/03/03 03:10:15;;;;;;;11.00;7.95;;;8.80;74.20;;;;;;4976676;28;20034;-85
2021/03/03 03:12:51;;;;;;;11.90;8.25;;;8.70;74.20;;;;;;4993903;28;20034;-86
2021/03/03 03:15:21;;;;;;;11.75;8.25;;;8.70;74.20;;;;;;4986188;28;20027;-86
2021/03/03 03:18:11;;;;;;;10.38;7.93;;;8.70;74.20;;;;;;5001741;28;20081;-86
2021/03/03 03:20:40;;;;;;;10.48;7.60;;;8.60;74.80;;;;;;4989021;28;20046;-85
2021/03/03 03:23:07;;;;;;;11.57;8.02;;;8.60;74.20;;;;;;4978350;28;20051;-86
2021/03/03 03:25:34;;;;;;;12.05;8.50;;;8.60;74.20;;;;;;4970714;28;20081;-86
2021/03/03 03:28:00;;;;;;;11.15;7.90;;;8.60;74.20;;;;;;4977070;28;20034;-86
2021/03/03 03:30:28;;;;;;;12.10;8.20;;;8.60;74.30;;;;;;4992442;28;20026;-86
2021/03/03 03:32:59;;;;;;;11.23;8.02;;;8.50;74.20;;;;;;4992451;28;20037;-86
2021/03/03 03:35:27;;;;;;;12.13;7.82;;;8.50;74.20;;;;;;4976303;28;20462;-86
2021/03/03 03:37:53;;;;;;;11.25;7.43;;;8.50;74.20;;;;;;4947023;28;20026;-85
2021/03/03 03:40:21;;;;;;;11.30;7.97;;;8.50;74.20;;;;;;4972150;28;20030;-85
2021/03/03 03:42:48;;;;;;;11.45;8.02;;;8.50;74.30;;;;;;4992727;28;20038;-86
2021/03/03 03:45:15;;;;;;;10.55;7.95;;;8.40;74.20;;;;;;4992848;28;20034;-86
2021/03/03 03:47:42;;;;;;;11.55;8.35;;;8.40;74.20;;;;;;4977586;28;20610;-86
2021/03/03 03:50:08;;;;;;;11.65;8.40;;;8.40;74.20;;;;;;4987866;28;20035;-86
2021/03/03 03:52:35;;;;;;;11.48;7.60;;;8.40;74.30;;;;;;4959931;28;20037;-86
2021/03/03 03:55:01;;;;;;;11.15;8.18;;;8.40;74.30;;;;;;4992578;28;20077;-86
2021/03/03 03:57:27;;;;;;;11.07;7.53;;;8.30;74.30;;;;;;4976138;28;20049;-86
2021/03/03 03:59:53;;;;;;;13.25;8.93;;;8.30;74.30;;;;;;4975867;28;20027;-85
2021/03/03 04:02:19;;;;;;;10.90;7.82;;;8.30;74.30;;;;;;4992016;28;20126;-85
2021/03/03 04:04:45;;;;;;;10.95;8.32;;;8.30;74.30;;;;;;4961969;28;20826;-86
2021/03/03 04:07:11;;;;;;;11.98;8.27;;;8.20;74.30;;;;;;4994611;28;20110;-85
2021/03/03 04:09:37;;;;;;;11.85;8.10;;;8.30;74.30;;;;;;4976303;28;20039;-86
2021/03/03 04:12:03;;;;;;;11.23;7.82;;;8.20;74.30;;;;;;4990786;28;20038;-86
2021/03/03 04:14:29;;;;;;;11.30;8.27;;;8.20;74.30;;;;;;4989124;28;20030;-86
2021/03/03 04:16:55;;;;;;;12.05;8.02;;;8.20;74.20;;;;;;4994900;28;20102;-86
2021/03/03 04:19:20;;;;;;;11.07;8.27;;;8.20;74.20;;;;;;4963049;28;20061;-85
2021/03/03 04:21:46;;;;;;;11.60;8.27;;;8.20;74.30;;;;;;4981026;28;20294;-86
2021/03/03 04:24:13;;;;;;;10.73;8.02;;;8.10;74.20;;;;;;4981383;28;20023;-85
2021/03/03 04:26:39;;;;;;;11.23;8.18;;;8.10;74.30;;;;;;4951337;28;20448;-86
2021/03/03 04:29:05;;;;;;;11.00;7.97;;;8.10;74.30;;;;;;4989784;28;20159;-86
2021/03/03 04:31:30;;;;;;;9.52;7.32;;;8.10;74.30;;;;;;4982894;28;20070;-85
2021/03/03 04:33:56;;;;;;;10.27;7.90;;;8.10;74.30;;;;;;4990514;28;20487;-85
2021/03/03 04:36:22;;;;;;;11.23;8.10;;;8.10;74.30;;;;;;4983854;28;20046;-85
2021/03/03 04:38:48;;;;;;;11.30;8.02;;;8.10;74.30;;;;;;4962922;28;20030;-86
2021/03/03 04:41:14;;;;;;;11.32;7.93;;;8.00;74.30;;;;;;4979307;28;20138;-86
2021/03/03 04:43:39;;;;;;;11.20;8.10;;;8.00;74.30;;;;;;4975896;28;20041;-85
2021/03/03 04:46:05;;;;;;;10.38;7.97;;;8.00;74.30;;;;;;4974470;28;20063;-86
2021/03/03 04:48:31;;;;;;;10.00;7.20;;;8.00;74.30;;;;;;4985868;28;20026;-86
2021/03/03 04:50:57;;;;;;;12.07;7.72;;;8.00;74.30;;;;;;4962007;28;20030;-85
2021/03/03 04:53:23;;;;;;;9.77;7.10;;;8.00;74.40;;;;;;4979038;28;20034;-86
2021/03/03 04:55:49;;;;;;;10.98;7.68;;;7.90;74.30;;;;;;4978150;28;20132;-86
2021/03/03 04:58:15;;;;;;;11.80;8.63;;;7.90;74.40;;;;;;4981122;28;20807;-86
2021/03/03 05:00:40;;;;;;;11.07;7.95;;;7.90;74.40;;;;;;4978308;28;20364;-86
2021/03/03 05:03:06;;;;;;;9.75;7.30;;;7.90;74.40;;;;;;4990232;28;20038;-86
2021/03/03 05:05:32;;;;;;;10.80;7.78;;;7.90;74.40;;;;;;4965911;28;20066;-85
2021/03/03 05:07:58;;;;;;;11.20;7.70;;;7.90;74.40;;;;;;4961867;28;20054;-86
2021/03/03 05:10:23;;;;;;;11.48;8.02;;;7.80;74.30;;;;;;4946699;28;20574;-86
2021/03/03 05:12:49;;;;;;;11.88;7.93;;;7.80;74.30;;;;;;4978214;28;20045;-86
2021/03/03 05:15:15;;;;;;;11.90;7.85;;;7.80;75.00;;;;;;4994842;28;20042;-86
2021/03/03 05:17:41;;;;;;;12.65;8.18;;;7.80;74.40;;;;;;4973749;28;20125;-86
2021/03/03 05:20:08;;;;;;;11.65;8.15;;;7.80;74.40;;;;;;4979262;28;20431;-85
2021/03/03 05:22:33;;;;;;;12.13;8.40;;;7.70;74.40;;;;;;4994330;28;20407;-85
2021/03/03 05:24:59;;;;;;;10.50;7.28;;;7.70;74.40;;;;;;4959112;28;20026;-86
2021/03/03 05:27:25;;;;;;;11.40;7.93;;;7.80;74.50;;;;;;4968474;28;20725;-86
2021/03/03 05:29:51;;;;;;;10.57;8.10;;;7.70;75.10;;;;;;4977439;28;20038;-86
2021/03/03 05:32:16;;;;;;;11.32;8.10;;;7.70;74.40;;;;;;4991178;28;20034;-86
2021/03/03 05:34:42;;;;;;;12.38;8.25;;;7.70;74.40;;;;;;4972224;28;20049;-86
2021/03/03 05:37:08;;;;;;;10.73;7.60;;;7.70;74.50;;;;;;4977630;28;20051;-86
2021/03/03 05:39:33;;;;;;;10.45;7.82;;;7.70;74.50;;;;;;4993834;28;20447;-86
2021/03/03 05:42:01;;;;;;;9.32;6.95;;;7.60;74.40;;;;;;4977541;28;20030;-86
2021/03/03 05:44:27;;;;;;;11.27;8.18;;;7.60;74.50;;;;;;4993727;28;20034;-85
2021/03/03 05:46:56;;;;;;;11.70;7.90;;;7.60;74.50;;;;;;4974931;28;20471;-85
2021/03/03 05:49:25;;;;;;;10.80;7.70;;;7.60;74.50;;;;;;4990883;28;20019;-85
2021/03/03 05:51:53;;;;;;;10.93;7.78;;;7.60;74.50;;;;;;4979059;28;20027;-85
2021/03/03 05:54:20;;;;;;;11.25;7.93;;;7.60;74.50;;;;;;4973640;28;20109;-85
2021/03/03 05:56:46;;;;;;;10.63;7.72;;;7.60;74.60;;;;;;4976875;28;20054;-82
2021/03/03 05:59:15;;;;;;;9.48;7.10;;;7.60;74.50;;;;;;4976844;28;20463;-81
2021/03/03 06:01:44;;;;;;;11.45;7.68;;;7.60;74.60;;;;;;4967706;28;20479;-82
2021/03/03 06:04:10;;;;;;;10.43;7.82;;;7.60;74.60;;;;;;4994652;28;20030;-84
2021/03/03 06:06:41;;;;;;;11.70;8.35;;;7.50;74.50;;;;;;4976461;28;20046;-83
2021/03/03 06:09:06;;;;;;;11.75;7.78;;;7.50;74.50;;;;;;4977015;28;20026;-84
2021/03/03 06:11:33;;;;;;;10.77;7.78;;;7.50;74.50;;;;;;4975854;28;20031;-84
2021/03/03 06:13:59;;;;;;;11.35;7.43;;;7.50;74.60;;;;;;4974253;28;20027;-82
2021/03/03 06:16:25;;;;;;;11.80;8.43;;;7.50;74.60;;;;;;4991872;28;20537;-83
2021/03/03 06:18:53;;;;;;;11.10;7.70;;;7.50;74.60;;;;;;4975685;28;20072;-83
2021/03/03 06:21:29;;;;;;;10.65;7.50;;;7.40;74.60;;;;;;4992664;28;20026;-84
2021/03/03 06:24:10;;;;;;;12.43;8.05;;;7.40;74.60;;;;;;4982676;28;20238;-82
2021/03/03 06:26:54;;;;;;;10.40;7.68;;;7.40;74.60;;;;;;4969601;28;20026;-82
2021/03/03 06:29:20;;;;;;;9.93;7.45;;;7.40;74.70;;;;;;4990934;28;20030;-81
2021/03/03 06:31:47;;;;;;;10.27;7.90;;;7.40;74.60;;;;;;4957886;28;20038;-83
2021/03/03 06:34:21;;;;;;;10.68;7.82;;;7.40;74.60;;;;;;4973163;28;20037;-82
2021/03/03 06:36:48;;;;;;;11.27;7.53;;;7.40;74.60;;;;;;4988287;28;20038;-82
2021/03/03 06:39:34;;;;;;;10.07;7.45;;;7.30;74.60;;;;;;4991519;28;20407;-81
2021/03/03 06:42:06;;;;;;;10.35;7.68;;;7.40;74.80;;;;;;4973781;28;20033;-82
2021/03/03 06:44:52;;;;;;;10.40;7.35;;;7.30;74.60;;;;;;4976901;28;20037;-84
2021/03/03 06:47:19;;;;;;;10.77;8.20;;;7.30;74.80;;;;;;4976553;28;20061;-84
2021/03/03 06:49:50;;;;;;;13.10;8.48;;;7.30;74.60;;;;;;4973356;28;20034;-82
2021/03/03 06:52:16;;;;;;;9.10;6.95;;;7.30;74.70;;;;;;4973433;28;20034;-84
2021/03/03 06:54:42;;;;;;;11.18;7.50;;;7.30;74.70;;;;;;4975644;28;20027;-81
2021/03/03 06:57:12;;;;;;;10.77;7.30;;;7.30;74.80;;;;;;4992240;28;20061;-82
2021/03/03 06:59:43;;;;;;;10.40;7.13;;;7.30;74.80;;;;;;4976129;28;20030;-82
2021/03/03 07:02:12;;;;;;;10.52;7.95;;;7.30;74.80;;;;;;4976541;28;20046;-82
2021/03/03 07:04:39;;;;;;;10.43;7.68;;;7.30;74.80;;;;;;4993382;28;20069;-81
2021/03/03 07:07:17;;;;;;;11.88;7.95;;;7.20;74.80;;;;;;4992716;28;20030;-82
2021/03/03 07:09:58;;;;;;;11.13;7.90;;;7.20;74.90;;;;;;4979362;28;20033;-82
2021/03/03 07:12:32;;;;;;;9.38;7.50;;;7.20;74.80;;;;;;4992591;28;20503;-83
2021/03/03 07:14:59;;;;;;;11.02;7.65;;;7.20;75.40;;;;;;4992671;28;20034;-85
2021/03/03 07:17:41;;;;;;;12.20;8.07;;;7.20;74.80;;;;;;4992800;28;20034;-87
2021/03/03 07:20:08;;;;;;;11.93;8.23;;;7.20;74.90;;;;;;4984965;28;20472;-86
2021/03/03 07:22:39;;;;;;;10.63;7.20;;;7.20;74.80;;;;;;4992913;28;20027;-84
2021/03/03 07:25:12;;;;;;;11.40;8.00;;;7.20;74.90;;;;;;4985502;28;20030;-84
2021/03/03 07:27:40;;;;;;;11.25;7.53;;;7.20;74.90;;;;;;4980490;28;20113;-85
2021/03/03 07:30:28;;;;;;;10.55;7.35;;;7.20;74.90;;;;;;4993754;28;20027;-84
2021/03/03 07:32:54;;;;;;;11.43;7.65;;;7.20;74.90;;;;;;4983769;28;20047;-83
2021/03/03 07:35:20;;;;;;;10.27;6.70;;;7.20;74.90;;;;;;4967246;28;20478;-84
2021/03/03 07:37:57;;;;;;;11.02;7.75;;;7.20;74.90;;;;;;4972634;28;20035;-84
2021/03/03 07:40:27;;;;;;;11.88;7.65;;;7.20;75.00;;;;;;4992068;28;20035;-84
2021/03/03 07:42:54;;;;;;;11.63;7.97;;;7.20;75.00;;;;;;4963026;28;20291;-84
2021/03/03 07:45:21;;;;;;;10.95;7.65;;;7.20;75.10;;;;;;4976816;28;20487;-84
2021/03/03 07:47:49;;;;;;;9.80;7.30;;;7.20;75.70;;;;;;4980639;28;20026;-82
2021/03/03 07:50:19;;;;;;;10.85;7.82;;;7.20;75.10;;;;;;4995598;28;20474;-85
2021/03/03 07:52:54;;;;;;;10.88;7.70;;;7.20;75.10;;;;;;4995501;28;20037;-83
2021/03/03 07:55:22;;;;;;;11.77;8.00;;;7.20;75.20;;;;;;4979556;28;20491;-83
2021/03/03 07:57:50;;;;;;;11.40;8.18;;;7.20;75.20;;;;;;4993924;28;20043;-83
2021/03/03 08:00:25;;;;;;;10.20;7.47;;;7.20;75.30;;;;;;4978555;28;20030;-84
2021/03/03 08:02:54;;;;;;;9.93;7.10;;;7.20;75.30;;;;;;4979595;28;20033;-85
2021/03/03 08:05:31;;;;;;;11.70;8.50;;;7.20;75.30;;;;;;4995527;28;20105;-85
2021/03/03 08:08:22;;;;;;;10.30;7.70;;;7.20;75.40;;;;;;4975118;28;20022;-84
2021/03/03 08:10:49;;;;;;;11.43;8.18;;;7.20;75.50;;;;;;4996459;28;20049;-84
2021/03/03 08:13:16;;;;;;;9.85;7.40;;;7.30;75.30;;;;;;4976202;28;20062;-84
2021/03/03 08:15:48;;;;;;;11.05;7.85;;;7.30;75.40;;;;;;4992674;28;20032;-84
2021/03/03 08:18:14;;;;;;;11.60;8.43;;;7.30;75.50;;;;;;4995569;28;20518;-83
2021/03/03 08:20:48;;;;;;;12.07;8.05;;;7.30;75.50;;;;;;4996555;28;20076;-84
2021/03/03 08:23:32;;;;;;;12.13;8.40;;;7.40;75.60;;;;;;4995668;28;20030;-85
2021/03/03 08:25:59;;;;;;;11.40;8.40;;;7.40;75.60;;;;;;4983070;28;20471;-85
2021/03/03 08:29:10;;;;;;;13.52;9.38;;;7.40;75.50;;;;;;4995815;28;20030;-85
2021/03/03 08:31:39;;;;;;;12.23;8.93;;;7.40;75.80;;;;;;4982905;28;20043;-86
2021/03/03 08:34:07;;;;;;;11.65;8.32;;;7.50;75.50;;;;;;4975968;28;20362;-86
2021/03/03 08:36:34;;;;;;;11.68;9.00;;;7.50;75.60;;;;;;4966400;28;20038;-86
2021/03/03 08:39:00;;;;;;;12.32;8.82;;;7.50;76.30;;;;;;4978795;28;20031;-85
2021/03/03 08:41:26;;;;;;;13.27;9.15;;;7.50;75.70;;;;;;4975811;28;20081;-86
2021/03/03 08:44:04;;;;;;;13.10;9.40;;;7.60;75.70;;;;;;4989193;28;20034;-85
2021/03/03 08:46:29;;;;;;;13.93;9.35;;;7.60;75.80;;;;;;4994754;28;20038;-85
2021/03/03 08:48:55;;;;;;;13.25;9.45;;;7.60;75.70;;;;;;4975368;28;20030;-85
2021/03/03 08:51:28;;;;;;;12.23;9.05;;;7.60;75.70;;;;;;4987526;28;20509;-85
2021/03/03 08:53:57;;;;;;;12.32;8.95;;;7.70;75.80;;;;;;4941786;28;20169;-85
2021/03/03 08:56:42;;;;;;;12.73;9.18;;;7.70;75.80;;;;;;4975471;28;20532;-85
2021/03/03 08:59:37;;;;;;;12.57;9.75;;;7.80;75.90;;;;;;4990635;28;20330;-84
2021/03/03 09:02:09;;;;;;;13.00;9.40;;;7.80;75.90;;;;;;4969238;28;20041;-84
2021/03/03 09:04:42;;;;;;;12.20;9.15;;;7.80;75.70;;;;;;4995483;28;20037;-84
2021/03/03 09:07:18;;;;;;;14.13;10.32;;;7.90;75.80;;;;;;4978516;28;20026;-84
2021/03/03 09:09:46;;;;;;;12.93;8.80;;;7.90;75.80;;;;;;4991071;28;20023;-84
2021/03/03 09:12:14;;;;;;;13.35;9.15;;;7.90;75.80;;;;;;4987238;28;20034;-84
2021/03/03 09:14:42;;;;;;;11.45;9.60;;;8.00;75.90;;;;;;4978666;28;20026;-84
2021/03/03 09:17:13;;;;;;;15.18;10.55;;;8.00;75.90;;;;;;4977834;28;20443;-85
2021/03/03 09:19:40;;;;;;;14.02;10.13;;;8.00;75.90;;;;;;4994569;28;20030;-84
2021/03/03 09:22:26;;;;;;;13.73;10.05;;;8.00;75.90;;;;;;4987475;28;20058;-84
2021/03/03 09:24:57;;;;;;;13.13;9.77;;;8.10;76.00;;;;;;4987124;28;20023;-85
2021/03/03 09:27:24;;;;;;;12.82;9.88;;;8.10;75.90;;;;;;4988770;28;20356;-85
2021/03/03 09:29:50;;;;;;;13.88;10.35;;;8.20;75.90;;;;;;4985411;28;20030;-84
2021/03/03 09:32:20;;;;;;;13.60;10.05;;;8.20;75.90;;;;;;4977338;28;20447;-85
2021/03/03 09:35:02;;;;;;;15.50;11.05;;;8.20;76.00;;;;;;4990173;28;20026;-87
2021/03/03 09:37:36;;;;;;;13.50;9.88;;;8.20;76.00;;;;;;4994067;28;20026;-86
2021/03/03 09:40:09;;;;;;;14.68;10.15;;;8.30;76.00;;;;;;4993979;28;20031;-87
2021/03/03 09:42:41;;;;;;;13.43;10.23;;;8.40;76.00;;;;;;4994962;28;20126;-88
2021/03/03 09:45:09;;;;;;;13.98;11.23;;;8.40;76.00;;;;;;4984201;28;20050;-88
2021/03/03 09:47:37;;;;;;;15.80;11.88;;;8.40;76.00;;;;;;4986147;28;20109;-87
2021/03/03 09:50:20;;;;;;;14.20;11.43;;;8.50;76.10;;;;;;4993557;28;20057;-87
2021/03/03 09:52:54;;;;;;;14.43;11.68;;;8.50;76.10;;;;;;4974717;28;20031;-88
2021/03/03 09:55:21;;;;;;;17.33;12.43;;;8.50;76.10;;;;;;4979229;28;20034;-88
2021/03/03 09:57:57;;;;;;;16.08;12.18;;;8.60;76.10;;;;;;4977982;28;20045;-87
2021/03/03 10:00:30;;;;;;;16.17;12.32;;;8.70;76.20;;;;;;4979059;28;20058;-88
2021/03/03 10:03:02;;;;;;;17.75;13.23;;;8.80;76.30;;;;;;4993779;28;20026;-87
2021/03/03 10:05:31;;;;;;;17.95;12.52;;;8.80;76.20;;;;;;4967474;28;20134;-87
2021/03/03 10:07:57;;;;;;;17.02;13.40;;;8.80;76.30;;;;;;4990229;28;20034;-88
2021/03/03 10:10:26;;;;;;;17.95;13.80;;;8.90;76.30;;;;;;4993780;28;20362;-87
2021/03/03 10:12:53;;;;;;;18.63;14.13;;;8.90;76.40;;;;;;4993502;28;20379;-87
2021/03/03 10:15:29;;;;;;;18.85;15.23;;;9.00;76.50;;;;;;4993593;28;20030;-87
2021/03/03 10:17:58;;;;;;;20.08;14.18;;;9.00;76.50;;;;;;4994484;28;20088;-87
2021/03/03 10:20:27;;;;;;;19.95;13.80;;;9.10;76.60;;;;;;4981066;28;20061;-86
2021/03/03 10:22:56;;;;;;;18.50;14.02;;;9.10;76.60;;;;;;4977535;28;20081;-87
2021/03/03 10:25:40;;;;;;;17.83;14.25;;;9.20;76.60;;;;;;4991669;28;20034;-87
2021/03/03 10:28:16;;;;;;;19.50;14.50;;;9.20;76.80;;;;;;4984206;28;20030;-88
2021/03/03 10:30:50;;;;;;;18.80;14.55;;;9.30;76.70;;;;;;4993712;28;20105;-88
2021/03/03 10:33:26;;;;;;;19.75;14.13;;;9.30;76.80;;;;;;4966962;28;20522;-86
2021/03/03 10:35:53;;;;;;;19.58;14.40;;;9.40;77.00;;;;;;4991501;28;20060;-87
2021/03/03 10:38:22;;;;;;;19.50;15.07;;;9.40;76.90;;;;;;4977257;28;20023;-87
2021/03/03 10:40:50;;;;;;;19.33;15.00;;;9.50;77.30;;;;;;4977127;28;20046;-87
2021/03/03 10:43:19;;;;;;;22.35;15.90;;;9.50;77.00;;;;;;4976667;28;20065;-87
2021/03/03 10:45:47;;;;;;;20.27;15.80;;;9.60;77.10;;;;;;4993308;28;20026;-87
2021/03/03 10:48:29;;;;;;;20.98;15.02;;;9.60;77.10;;;;;;4976912;28;20026;-87
2021/03/03 10:50:58;;;;;;;19.23;15.63;;;9.70;77.30;;;;;;4991075;28;20105;-87
2021/03/03 10:53:24;;;;;;;20.88;16.02;;;9.80;77.20;;;;;;4979086;28;20109;-87
2021/03/03 10:55:50;;;;;;;21.65;17.35;;;9.80;77.30;;;;;;4988091;28;20120;-88
2021/03/03 10:58:18;;;;;;;20.08;16.10;;;9.90;77.30;;;;;;4977411;28;20066;-88
2021/03/03 11:01:04;;;;;;;21.00;16.25;;;9.90;77.40;;;;;;4977113;28;20038;-87
2021/03/03 11:03:30;;;;;;;;;;;10.00;77.70;;;;;;4962319;28;20031;-87
2021/03/03 11:05:59;;;;;;;19.25;14.68;;;10.00;77.30;;;;;;4986717;28;20000;-86
2021/03/03 11:08:27;;;;;;;21.80;15.48;;;10.10;77.20;;;;;;4963598;28;20072;-87
2021/03/03 11:11:06;;;;;;;21.58;17.20;;;10.10;77.40;;;;;;4960810;28;20038;-88
2021/03/03 11:13:34;;;;;;;21.75;15.93;;;10.20;77.70;;;;;;4980525;28;20026;-87
2021/03/03 11:16:01;;;;;;;23.95;18.67;;;10.30;77.60;;;;;;4995370;28;20475;-86
2021/03/03 11:18:27;;;;;;;21.27;16.73;;;10.30;77.70;;;;;;4996962;28;20030;-86
2021/03/03 11:20:53;;;;;;;22.88;17.50;;;10.40;77.70;;;;;;4980849;28;20033;-86
2021/03/03 11:23:19;;;;;;;25.38;19.05;;;10.50;77.70;;;;;;4976291;28;20088;-85
2021/03/03 11:25:44;;;;;;;21.33;17.73;;;10.50;77.70;;;;;;4980303;28;20421;-87
2021/03/03 11:28:10;;;;;;;23.25;18.65;;;10.60;77.80;;;;;;4996277;28;20527;-87
2021/03/03 11:30:36;;;;;;;26.67;18.92;;;10.70;77.90;;;;;;4997012;28;20034;-84
2021/03/03 11:33:02;;;;;;;24.77;19.92;;;10.70;77.90;;;;;;4963872;28;20038;-84
2021/03/03 11:35:28;;;;;;;26.52;20.45;;;10.80;77.90;;;;;;4995837;28;20030;-84
2021/03/03 11:37:54;;;;;;;25.80;20.38;;;10.90;78.00;;;;;;4978929;28;20553;-81
2021/03/03 11:40:20;;;;;;;26.80;20.90;;;10.90;78.00;;;;;;4996280;28;20037;-81
2021/03/03 11:42:45;;;;;;;26.65;20.40;;;11.00;78.00;;;;;;4996860;28;20500;-81
2021/03/03 11:45:12;;;;;;;25.23;20.02;;;11.10;78.10;;;;;;4979230;28;20387;-81
2021/03/03 11:47:38;;;;;;;27.48;20.45;;;11.10;78.00;;;;;;4996719;28;20026;-81
2021/03/03 11:50:05;;;;;;;28.45;22.63;;;11.20;78.00;;;;;;4995656;28;20537;-82
2021/03/03 11:52:31;;;;;;;28.08;22.45;;;11.20;78.00;;;;;;4979594;28;20081;-81
2021/03/03 11:54:57;;;;;;;27.77;21.65;;;11.30;78.10;;;;;;5002240;28;20026;-82
2021/03/03 11:57:22;;;;;;;29.27;22.08;;;11.40;78.10;;;;;;4995782;28;20110;-82
2021/03/03 11:59:50;;;;;;;29.85;22.40;;;11.40;78.00;;;;;;4996281;28;20043;-81
2021/03/03 12:02:16;;;;;;;30.50;23.73;;;11.50;78.10;;;;;;4979611;28;20026;-83
2021/03/03 12:04:41;;;;;;;31.88;24.23;;;11.50;78.10;;;;;;4995529;28;20054;-82
2021/03/03 12:07:07;;;;;;;31.42;24.25;;;11.50;78.10;;;;;;4979683;28;20086;-83
2021/03/03 12:09:33;;;;;;;31.38;24.60;;;11.60;78.20;;;;;;4977420;28;20479;-83
2021/03/03 12:11:59;;;;;;;33.42;25.92;;;11.70;78.20;;;;;;4967728;28;20073;-83
2021/03/03 12:14:25;;;;;;;33.80;25.02;;;11.70;78.20;;;;;;4995843;28;20475;-83
2021/03/03 12:16:50;;;;;;;34.58;25.15;;;11.80;78.20;;;;;;4956322;28;20513;-82
2021/03/03 12:19:16;;;;;;;35.10;25.35;;;11.80;78.20;;;;;;4994446;28;20035;-82
2021/03/03 12:21:42;;;;;;;32.55;25.80;;;11.90;78.30;;;;;;4979658;28;20038;-84
2021/03/03 12:24:08;;;;;;;32.72;25.52;;;11.90;78.20;;;;;;4996646;28;20058;-84
2021/03/03 12:26:34;;;;;;;35.72;26.17;;;12.00;78.30;;;;;;4993993;28;20030;-83
2021/03/03 12:28:59;;;;;;;33.45;26.42;;;12.00;78.20;;;;;;4978137;28;20048;-82
2021/03/03 12:31:25;;;;;;;34.03;25.80;;;12.10;78.30;;;;;;4978638;28;20034;-84
2021/03/03 12:33:51;;;;;;;34.92;27.05;;;12.20;78.30;;;;;;4979221;28;20035;-84
2021/03/03 12:36:16;;;;;;;35.78;26.30;;;12.20;78.40;;;;;;4959569;28;20078;-83
2021/03/03 12:38:42;;;;;;;35.35;26.77;;;12.30;78.40;;;;;;4972786;28;20510;-82
2021/03/03 12:41:08;;;;;;;33.05;25.55;;;12.30;78.40;;;;;;4962466;28;20023;-82
2021/03/03 12:43:34;;;;;;;32.50;25.60;;;12.40;78.50;;;;;;4995821;28;20052;-82
2021/03/03 12:46:00;;;;;;;33.17;25.58;;;12.40;78.50;;;;;;4995837;28;20035;-82
2021/03/03 12:48:25;;;;;;;33.83;25.50;;;12.50;78.50;;;;;;4978177;28;20026;-81
2021/03/03 12:50:51;;;;;;;32.05;26.02;;;12.50;78.50;;;;;;4977809;28;20490;-82